WLF137 KBOS-KCMH
Flight info
| Callsign | WLF137 |
|---|---|
| Flight time | 1h 43m |
| Altitude | 38000 |
| Route | BLZZR6 BLZZR BAF Q480 AIR CLPRR3 |
| Aircraft | B738/M-SDE2E3FGHIRWXY/LB1 |
Departure
| Time | 2026-05-05 19:06 |
|---|---|
| Airport | Boston Logan International Airport (KBOS) |
Arrival
| Time | 2026-05-05 20:49 |
|---|---|
| Airport | John Glenn Columbus International Airport (KCMH) |
| Time | Latitude | Longitude | Altitude | Speed | Heading |
|---|---|---|---|---|---|
| 2026-05-05 18:39 | 42.36188 | -71.02440 | 24 ft | 0 kts | 280° |
| 2026-05-05 18:55 | 42.36186 | -71.02426 | 24 ft | 4 kts | 279° |
| 2026-05-05 18:55 | 42.36181 | -71.02391 | 24 ft | 4 kts | 284° |
| 2026-05-05 18:56 | 42.36172 | -71.02359 | 24 ft | 4 kts | 319° |
| 2026-05-05 18:56 | 42.36161 | -71.02351 | 24 ft | 0 kts | 4° |
| 2026-05-05 18:58 | 42.36174 | -71.02349 | 28 ft | 4 kts | 8° |
| 2026-05-05 18:58 | 42.36169 | -71.02321 | 24 ft | 5 kts | 163° |
| 2026-05-05 18:58 | 42.36118 | -71.02321 | 26 ft | 10 kts | 180° |
| 2026-05-05 18:59 | 42.36046 | -71.02283 | 28 ft | 13 kts | 135° |
| 2026-05-05 18:59 | 42.35991 | -71.02168 | 26 ft | 16 kts | 121° |
| 2026-05-05 18:59 | 42.35926 | -71.02022 | 24 ft | 19 kts | 122° |
| 2026-05-05 18:59 | 42.35863 | -71.01866 | 26 ft | 19 kts | 111° |
| 2026-05-05 19:00 | 42.35834 | -71.01698 | 24 ft | 18 kts | 103° |
| 2026-05-05 19:00 | 42.35862 | -71.01560 | 27 ft | 17 kts | 17° |
| 2026-05-05 19:00 | 42.35975 | -71.01509 | 27 ft | 17 kts | 19° |
| 2026-05-05 19:00 | 42.36081 | -71.01457 | 24 ft | 16 kts | 19° |
| 2026-05-05 19:01 | 42.36185 | -71.01407 | 27 ft | 16 kts | 19° |
| 2026-05-05 19:01 | 42.36285 | -71.01359 | 27 ft | 15 kts | 19° |
| 2026-05-05 19:01 | 42.36383 | -71.01312 | 27 ft | 16 kts | 19° |
| 2026-05-05 19:01 | 42.36499 | -71.01256 | 25 ft | 19 kts | 20° |
| 2026-05-05 19:02 | 42.36622 | -71.01196 | 25 ft | 18 kts | 20° |
| 2026-05-05 19:02 | 42.36742 | -71.01145 | 27 ft | 18 kts | 7° |
| 2026-05-05 19:02 | 42.36830 | -71.01201 | 25 ft | 10 kts | 314° |
| 2026-05-05 19:02 | 42.36892 | -71.01224 | 25 ft | 10 kts | 23° |
| 2026-05-05 19:03 | 42.36954 | -71.01148 | 26 ft | 14 kts | 38° |
| 2026-05-05 19:03 | 42.37048 | -71.01071 | 26 ft | 18 kts | 27° |
| 2026-05-05 19:03 | 42.37168 | -71.00993 | 26 ft | 20 kts | 25° |
| 2026-05-05 19:03 | 42.37290 | -71.00916 | 27 ft | 19 kts | 23° |
| 2026-05-05 19:04 | 42.37411 | -71.00852 | 27 ft | 18 kts | 20° |
| 2026-05-05 19:04 | 42.37530 | -71.00797 | 26 ft | 18 kts | 20° |
| 2026-05-05 19:04 | 42.37645 | -71.00742 | 26 ft | 17 kts | 19° |
| 2026-05-05 19:04 | 42.37756 | -71.00692 | 25 ft | 17 kts | 18° |
| 2026-05-05 19:05 | 42.37836 | -71.00617 | 26 ft | 13 kts | 71° |
| 2026-05-05 19:05 | 42.37818 | -71.00517 | 28 ft | 8 kts | 117° |
| 2026-05-05 19:05 | 42.37773 | -71.00485 | 29 ft | 8 kts | 184° |
| 2026-05-05 19:05 | 42.37712 | -71.00510 | 27 ft | 22 kts | 199° |
| 2026-05-05 19:06 | 42.37332 | -71.00692 | 27 ft | 92 kts | 200° |
| 2026-05-05 19:06 | 42.36548 | -71.01088 | 69 ft | 143 kts | 199° |
| 2026-05-05 19:06 | 42.35556 | -71.01622 | 542 ft | 154 kts | 202° |
| 2026-05-05 19:06 | 42.34535 | -71.01810 | 1395 ft | 147 kts | 165° |
| 2026-05-05 19:07 | 42.33649 | -71.01149 | 2221 ft | 161 kts | 144° |
| 2026-05-05 19:07 | 42.32823 | -70.99866 | 2530 ft | 199 kts | 137° |
| 2026-05-05 19:07 | 42.31933 | -70.98298 | 2931 ft | 220 kts | 131° |
| 2026-05-05 19:07 | 42.31390 | -70.96261 | 3420 ft | 241 kts | 108° |
| 2026-05-05 19:08 | 42.31305 | -70.93896 | 3624 ft | 274 kts | 85° |
| 2026-05-05 19:08 | 42.31709 | -70.91259 | 3939 ft | 297 kts | 81° |
| 2026-05-05 19:08 | 42.32147 | -70.88475 | 4749 ft | 301 kts | 82° |
| 2026-05-05 19:08 | 42.32562 | -70.85698 | 5390 ft | 312 kts | 83° |
| 2026-05-05 19:09 | 42.32978 | -70.82803 | 6189 ft | 315 kts | 84° |
| 2026-05-05 19:09 | 42.33020 | -70.79887 | 6982 ft | 306 kts | 109° |
| 2026-05-05 19:09 | 42.32263 | -70.77253 | 7703 ft | 301 kts | 126° |
| 2026-05-05 19:09 | 42.31240 | -70.74752 | 8424 ft | 305 kts | 130° |
| 2026-05-05 19:10 | 42.29826 | -70.72739 | 9128 ft | 291 kts | 158° |
| 2026-05-05 19:10 | 42.27982 | -70.71802 | 9853 ft | 279 kts | 179° |
| 2026-05-05 19:10 | 42.26068 | -70.71751 | 10387 ft | 278 kts | 195° |
| 2026-05-05 19:10 | 42.24139 | -70.72190 | 10964 ft | 284 kts | 197° |
| 2026-05-05 19:11 | 42.22176 | -70.72677 | 11624 ft | 289 kts | 199° |
| 2026-05-05 19:11 | 42.20352 | -70.73710 | 12314 ft | 283 kts | 221° |
| 2026-05-05 19:11 | 42.18984 | -70.75604 | 12918 ft | 287 kts | 237° |
| 2026-05-05 19:11 | 42.18115 | -70.78114 | 13081 ft | 307 kts | 256° |
| 2026-05-05 19:12 | 42.17686 | -70.81006 | 13273 ft | 328 kts | 260° |
| 2026-05-05 19:12 | 42.17293 | -70.84124 | 13717 ft | 339 kts | 260° |
| 2026-05-05 19:12 | 42.16886 | -70.87280 | 14323 ft | 344 kts | 260° |
| 2026-05-05 19:12 | 42.16462 | -70.90461 | 15041 ft | 347 kts | 259° |
| 2026-05-05 19:13 | 42.16045 | -70.93689 | 15706 ft | 351 kts | 262° |
| 2026-05-05 19:13 | 42.16098 | -70.96998 | 16333 ft | 358 kts | 274° |
| 2026-05-05 19:13 | 42.16377 | -71.00339 | 16982 ft | 361 kts | 274° |
| 2026-05-05 19:13 | 42.16646 | -71.03734 | 17608 ft | 366 kts | 274° |
| 2026-05-05 19:14 | 42.16908 | -71.07163 | 18213 ft | 371 kts | 274° |
| 2026-05-05 19:14 | 42.17167 | -71.10642 | 18750 ft | 375 kts | 274° |
| 2026-05-05 19:14 | 42.17424 | -71.14164 | 19296 ft | 379 kts | 273° |
| 2026-05-05 19:14 | 42.17684 | -71.17761 | 19829 ft | 383 kts | 273° |
| 2026-05-05 19:15 | 42.17940 | -71.21350 | 20360 ft | 386 kts | 273° |
| 2026-05-05 19:15 | 42.18194 | -71.24925 | 20883 ft | 390 kts | 273° |
| 2026-05-05 19:15 | 42.18456 | -71.28636 | 21394 ft | 394 kts | 273° |
| 2026-05-05 19:15 | 42.18716 | -71.32322 | 21874 ft | 398 kts | 272° |
| 2026-05-05 19:16 | 42.18978 | -71.36053 | 22329 ft | 401 kts | 272° |
| 2026-05-05 19:16 | 42.19247 | -71.39918 | 22803 ft | 405 kts | 272° |
| 2026-05-05 19:16 | 42.19510 | -71.43719 | 23283 ft | 409 kts | 272° |
| 2026-05-05 19:16 | 42.19775 | -71.47550 | 23714 ft | 412 kts | 272° |
| 2026-05-05 19:17 | 42.20040 | -71.51405 | 24137 ft | 414 kts | 273° |
| 2026-05-05 19:17 | 42.20305 | -71.55280 | 24540 ft | 416 kts | 273° |
| 2026-05-05 19:17 | 42.20570 | -71.59177 | 24934 ft | 419 kts | 273° |
| 2026-05-05 19:17 | 42.20842 | -71.63203 | 25347 ft | 421 kts | 274° |
| 2026-05-05 19:18 | 42.21109 | -71.67142 | 25724 ft | 423 kts | 274° |
| 2026-05-05 19:18 | 42.21375 | -71.71114 | 26090 ft | 425 kts | 274° |
| 2026-05-05 19:18 | 42.21640 | -71.75094 | 26467 ft | 428 kts | 274° |
| 2026-05-05 19:18 | 42.21730 | -71.79108 | 26819 ft | 429 kts | 268° |
| 2026-05-05 19:19 | 42.21558 | -71.83131 | 27166 ft | 431 kts | 265° |
| 2026-05-05 19:19 | 42.21285 | -71.87172 | 27510 ft | 433 kts | 264° |
| 2026-05-05 19:19 | 42.20991 | -71.91233 | 27834 ft | 436 kts | 264° |
| 2026-05-05 19:19 | 42.20710 | -71.95295 | 28252 ft | 435 kts | 265° |
| 2026-05-05 19:20 | 42.20453 | -71.99298 | 28722 ft | 434 kts | 265° |
| 2026-05-05 19:20 | 42.20209 | -72.03350 | 29221 ft | 432 kts | 266° |
| 2026-05-05 19:20 | 42.19975 | -72.07411 | 29415 ft | 437 kts | 266° |
| 2026-05-05 19:20 | 42.19740 | -72.11575 | 29627 ft | 441 kts | 266° |
| 2026-05-05 19:21 | 42.19508 | -72.15692 | 29993 ft | 441 kts | 266° |
| 2026-05-05 19:21 | 42.19275 | -72.19805 | 30352 ft | 439 kts | 266° |
| 2026-05-05 19:21 | 42.19042 | -72.23898 | 30757 ft | 437 kts | 266° |
| 2026-05-05 19:21 | 42.18810 | -72.27924 | 31187 ft | 434 kts | 266° |
| 2026-05-05 19:22 | 42.18576 | -72.31947 | 31775 ft | 428 kts | 266° |
| 2026-05-05 19:22 | 42.18343 | -72.35935 | 32125 ft | 428 kts | 265° |
| 2026-05-05 19:22 | 42.18108 | -72.39949 | 32313 ft | 431 kts | 265° |
| 2026-05-05 19:22 | 42.17870 | -72.43975 | 32683 ft | 429 kts | 265° |
| 2026-05-05 19:23 | 42.17632 | -72.47974 | 33096 ft | 426 kts | 265° |
| 2026-05-05 19:23 | 42.17394 | -72.51958 | 33420 ft | 426 kts | 265° |
| 2026-05-05 19:23 | 42.17155 | -72.55944 | 33610 ft | 429 kts | 265° |
| 2026-05-05 19:23 | 42.16914 | -72.59932 | 34027 ft | 425 kts | 265° |
| 2026-05-05 19:24 | 42.16673 | -72.63891 | 34424 ft | 422 kts | 265° |
| 2026-05-05 19:24 | 42.16370 | -72.67823 | 34713 ft | 421 kts | 260° |
| 2026-05-05 19:24 | 42.15653 | -72.71639 | 34959 ft | 422 kts | 252° |
| 2026-05-05 19:24 | 42.14577 | -72.75314 | 35253 ft | 421 kts | 245° |
| 2026-05-05 19:25 | 42.13137 | -72.78749 | 35588 ft | 420 kts | 240° |
| 2026-05-05 19:25 | 42.11634 | -72.82097 | 35906 ft | 418 kts | 240° |
| 2026-05-05 19:25 | 42.10122 | -72.85441 | 36160 ft | 417 kts | 240° |
| 2026-05-05 19:25 | 42.08620 | -72.88772 | 36447 ft | 416 kts | 240° |
| 2026-05-05 19:26 | 42.07125 | -72.92104 | 36736 ft | 414 kts | 240° |
| 2026-05-05 19:26 | 42.05642 | -72.95425 | 37070 ft | 412 kts | 241° |
| 2026-05-05 19:26 | 42.04179 | -72.98706 | 37507 ft | 407 kts | 241° |
| 2026-05-05 19:26 | 42.02728 | -73.01961 | 37808 ft | 405 kts | 241° |
| 2026-05-05 19:27 | 41.99808 | -73.08517 | 37823 ft | 410 kts | 241° |
| 2026-05-05 19:27 | 41.96899 | -73.15029 | 37785 ft | 407 kts | 241° |
| 2026-05-05 19:28 | 41.93999 | -73.21508 | 37828 ft | 403 kts | 241° |
| 2026-05-05 19:28 | 41.91110 | -73.27948 | 37815 ft | 402 kts | 241° |
| 2026-05-05 19:29 | 41.88705 | -73.33290 | 37825 ft | 402 kts | 241° |
| 2026-05-05 19:29 | 41.85811 | -73.39708 | 37806 ft | 402 kts | 241° |
| 2026-05-05 19:30 | 41.82907 | -73.46132 | 37817 ft | 404 kts | 241° |
| 2026-05-05 19:30 | 41.79983 | -73.52589 | 37791 ft | 406 kts | 241° |
| 2026-05-05 19:31 | 41.77047 | -73.59060 | 37800 ft | 407 kts | 241° |
| 2026-05-05 19:31 | 41.74096 | -73.65551 | 37804 ft | 409 kts | 241° |
| 2026-05-05 19:32 | 41.71124 | -73.72075 | 37797 ft | 411 kts | 241° |
| 2026-05-05 19:32 | 41.68148 | -73.78594 | 37800 ft | 414 kts | 241° |
| 2026-05-05 19:33 | 41.64865 | -73.84935 | 37800 ft | 417 kts | 232° |
| 2026-05-05 19:33 | 41.61024 | -73.90768 | 37803 ft | 418 kts | 231° |
| 2026-05-05 19:34 | 41.57167 | -73.96596 | 37792 ft | 419 kts | 232° |
| 2026-05-05 19:35 | 41.51425 | -74.05367 | 37800 ft | 418 kts | 232° |
| 2026-05-05 19:35 | 41.47681 | -74.11100 | 37801 ft | 417 kts | 232° |
| 2026-05-05 19:36 | 41.43903 | -74.16871 | 37812 ft | 415 kts | 232° |
| 2026-05-05 19:36 | 41.40105 | -74.22663 | 37823 ft | 415 kts | 232° |
| 2026-05-05 19:37 | 41.36312 | -74.28436 | 37831 ft | 414 kts | 232° |
| 2026-05-05 19:37 | 41.32522 | -74.34196 | 37805 ft | 414 kts | 232° |
| 2026-05-05 19:38 | 41.30052 | -74.37942 | 37846 ft | 413 kts | 232° |
| 2026-05-05 19:39 | 41.28802 | -74.39840 | 37860 ft | 411 kts | 232° |
| 2026-05-05 19:39 | 41.25021 | -74.45562 | 37847 ft | 415 kts | 233° |
| 2026-05-05 19:40 | 41.21505 | -74.51640 | 37845 ft | 416 kts | 237° |
| 2026-05-05 19:40 | 41.18115 | -74.57900 | 37843 ft | 418 kts | 237° |
| 2026-05-05 19:41 | 41.14710 | -74.64173 | 37816 ft | 419 kts | 237° |
| 2026-05-05 19:41 | 41.11273 | -74.70426 | 37835 ft | 420 kts | 237° |
| 2026-05-05 19:42 | 41.07822 | -74.76669 | 37844 ft | 420 kts | 237° |
| 2026-05-05 19:42 | 41.04364 | -74.82913 | 37843 ft | 419 kts | 237° |
| 2026-05-05 19:43 | 41.00915 | -74.89132 | 37844 ft | 419 kts | 237° |
| 2026-05-05 19:43 | 40.97472 | -74.95327 | 37826 ft | 417 kts | 237° |
| 2026-05-05 19:44 | 40.94270 | -75.01694 | 37851 ft | 415 kts | 240° |
| 2026-05-05 19:44 | 40.91190 | -75.08127 | 37859 ft | 414 kts | 240° |
| 2026-05-05 19:45 | 40.88100 | -75.14533 | 37858 ft | 413 kts | 240° |
| 2026-05-05 19:45 | 40.85017 | -75.20871 | 37858 ft | 412 kts | 240° |
| 2026-05-05 19:46 | 40.82312 | -75.26416 | 37829 ft | 412 kts | 240° |
| 2026-05-05 19:46 | 40.79208 | -75.32767 | 37842 ft | 412 kts | 240° |
| 2026-05-05 19:47 | 40.76149 | -75.39146 | 37848 ft | 410 kts | 245° |
| 2026-05-05 19:47 | 40.73644 | -75.45891 | 37860 ft | 410 kts | 247° |
| 2026-05-05 19:48 | 40.71154 | -75.52668 | 37855 ft | 411 kts | 247° |
| 2026-05-05 19:48 | 40.68639 | -75.59445 | 37853 ft | 412 kts | 246° |
| 2026-05-05 19:49 | 40.66106 | -75.66230 | 37829 ft | 413 kts | 246° |
| 2026-05-05 19:49 | 40.63565 | -75.73024 | 37847 ft | 413 kts | 247° |
| 2026-05-05 19:50 | 40.61020 | -75.79816 | 37854 ft | 414 kts | 247° |
| 2026-05-05 19:50 | 40.58456 | -75.86600 | 37844 ft | 414 kts | 247° |
| 2026-05-05 19:51 | 40.55873 | -75.93366 | 37847 ft | 414 kts | 246° |
| 2026-05-05 19:51 | 40.53281 | -76.00143 | 37848 ft | 414 kts | 246° |
| 2026-05-05 19:52 | 40.50698 | -76.06890 | 37849 ft | 414 kts | 246° |
| 2026-05-05 19:52 | 40.48115 | -76.13624 | 37846 ft | 413 kts | 247° |
| 2026-05-05 19:53 | 40.45526 | -76.20360 | 37850 ft | 413 kts | 247° |
| 2026-05-05 19:53 | 40.42934 | -76.27088 | 37837 ft | 412 kts | 247° |
| 2026-05-05 19:54 | 40.40346 | -76.33793 | 37837 ft | 412 kts | 247° |
| 2026-05-05 19:54 | 40.37756 | -76.40488 | 37835 ft | 411 kts | 247° |
| 2026-05-05 19:55 | 40.35161 | -76.47180 | 37824 ft | 411 kts | 247° |
| 2026-05-05 19:55 | 40.32544 | -76.53842 | 37837 ft | 411 kts | 247° |
| 2026-05-05 19:56 | 40.29888 | -76.60467 | 37832 ft | 411 kts | 247° |
| 2026-05-05 19:56 | 40.27232 | -76.67077 | 37851 ft | 410 kts | 247° |
| 2026-05-05 19:57 | 40.24574 | -76.73697 | 37853 ft | 410 kts | 247° |
| 2026-05-05 19:57 | 40.21938 | -76.80252 | 37854 ft | 410 kts | 247° |
| 2026-05-05 19:58 | 40.19279 | -76.86849 | 37865 ft | 410 kts | 248° |
| 2026-05-05 19:58 | 40.16618 | -76.93443 | 37817 ft | 410 kts | 248° |
| 2026-05-05 19:59 | 40.13951 | -77.00031 | 37837 ft | 410 kts | 248° |
| 2026-05-05 19:59 | 40.11277 | -77.06622 | 37838 ft | 411 kts | 248° |
| 2026-05-05 20:00 | 40.08600 | -77.13212 | 37848 ft | 411 kts | 248° |
| 2026-05-05 20:00 | 40.05908 | -77.19820 | 37850 ft | 413 kts | 247° |
| 2026-05-05 20:01 | 40.03206 | -77.26442 | 37857 ft | 414 kts | 248° |
| 2026-05-05 20:01 | 40.00490 | -77.33084 | 37848 ft | 415 kts | 248° |
| 2026-05-05 20:02 | 39.97771 | -77.39731 | 37835 ft | 415 kts | 250° |
| 2026-05-05 20:02 | 39.96088 | -77.46758 | 37861 ft | 402 kts | 264° |
| 2026-05-05 20:03 | 39.95802 | -77.53945 | 37859 ft | 395 kts | 275° |
| 2026-05-05 20:03 | 39.96056 | -77.61098 | 37859 ft | 395 kts | 276° |
| 2026-05-05 20:04 | 39.96304 | -77.68250 | 37840 ft | 394 kts | 275° |
| 2026-05-05 20:04 | 39.96525 | -77.75370 | 37839 ft | 392 kts | 275° |
| 2026-05-05 20:05 | 39.96731 | -77.82476 | 37863 ft | 392 kts | 275° |
| 2026-05-05 20:05 | 39.96932 | -77.89581 | 37852 ft | 392 kts | 275° |
| 2026-05-05 20:06 | 39.97130 | -77.96687 | 37843 ft | 391 kts | 275° |
| 2026-05-05 20:06 | 39.97325 | -78.03755 | 37835 ft | 389 kts | 275° |
| 2026-05-05 20:07 | 39.97515 | -78.10784 | 37818 ft | 387 kts | 275° |
| 2026-05-05 20:07 | 39.97702 | -78.17778 | 37841 ft | 386 kts | 275° |
| 2026-05-05 20:08 | 39.97878 | -78.24761 | 37843 ft | 384 kts | 275° |
| 2026-05-05 20:08 | 39.98060 | -78.31726 | 37835 ft | 384 kts | 275° |
| 2026-05-05 20:09 | 39.98234 | -78.38694 | 37836 ft | 384 kts | 275° |
| 2026-05-05 20:09 | 39.98403 | -78.45659 | 37836 ft | 385 kts | 275° |
| 2026-05-05 20:10 | 39.98566 | -78.52635 | 37845 ft | 384 kts | 275° |
| 2026-05-05 20:10 | 39.98725 | -78.59582 | 37843 ft | 383 kts | 275° |
| 2026-05-05 20:11 | 39.98886 | -78.66532 | 37850 ft | 384 kts | 275° |
| 2026-05-05 20:11 | 39.99037 | -78.73514 | 37852 ft | 386 kts | 275° |
| 2026-05-05 20:12 | 39.99185 | -78.80522 | 37846 ft | 387 kts | 275° |
| 2026-05-05 20:12 | 39.99328 | -78.87516 | 37860 ft | 386 kts | 275° |
| 2026-05-05 20:13 | 39.99466 | -78.94507 | 37853 ft | 385 kts | 275° |
| 2026-05-05 20:13 | 39.99602 | -79.01487 | 37858 ft | 385 kts | 275° |
| 2026-05-05 20:14 | 39.99734 | -79.08453 | 37874 ft | 383 kts | 275° |
| 2026-05-05 20:14 | 39.99860 | -79.15387 | 37854 ft | 381 kts | 275° |
| 2026-05-05 20:15 | 39.99961 | -79.21124 | 37856 ft | 380 kts | 275° |
| 2026-05-05 20:15 | 40.00079 | -79.27996 | 37850 ft | 378 kts | 275° |
| 2026-05-05 20:16 | 40.00194 | -79.34843 | 37869 ft | 377 kts | 275° |
| 2026-05-05 20:16 | 40.00303 | -79.41676 | 37882 ft | 377 kts | 275° |
| 2026-05-05 20:17 | 40.00410 | -79.48511 | 37881 ft | 376 kts | 275° |
| 2026-05-05 20:17 | 40.00511 | -79.55317 | 37893 ft | 375 kts | 275° |
| 2026-05-05 20:18 | 40.00609 | -79.62104 | 37884 ft | 373 kts | 275° |
| 2026-05-05 20:18 | 40.00704 | -79.68878 | 37848 ft | 374 kts | 275° |
| 2026-05-05 20:19 | 40.00796 | -79.75655 | 37844 ft | 374 kts | 275° |
| 2026-05-05 20:19 | 40.00883 | -79.82438 | 37850 ft | 374 kts | 275° |
| 2026-05-05 20:20 | 40.00965 | -79.89213 | 37847 ft | 373 kts | 274° |
| 2026-05-05 20:20 | 40.01043 | -79.95958 | 37844 ft | 372 kts | 274° |
| 2026-05-05 20:21 | 40.01118 | -80.02713 | 37861 ft | 372 kts | 275° |
| 2026-05-05 20:21 | 40.01189 | -80.09485 | 37851 ft | 373 kts | 274° |
| 2026-05-05 20:22 | 40.01255 | -80.16245 | 37853 ft | 373 kts | 274° |
| 2026-05-05 20:22 | 40.01318 | -80.23004 | 37860 ft | 373 kts | 274° |
| 2026-05-05 20:23 | 40.01377 | -80.29763 | 37860 ft | 373 kts | 274° |
| 2026-05-05 20:23 | 40.01432 | -80.36528 | 37853 ft | 372 kts | 274° |
| 2026-05-05 20:24 | 40.01484 | -80.43279 | 37854 ft | 372 kts | 274° |
| 2026-05-05 20:24 | 40.01530 | -80.50034 | 37844 ft | 373 kts | 274° |
| 2026-05-05 20:25 | 40.01573 | -80.56800 | 37564 ft | 377 kts | 274° |
| 2026-05-05 20:25 | 40.01594 | -80.60206 | 37062 ft | 373 kts | 274° |
| 2026-05-05 20:25 | 40.01613 | -80.63575 | 36502 ft | 370 kts | 273° |
| 2026-05-05 20:25 | 40.01631 | -80.66925 | 35858 ft | 369 kts | 273° |
| 2026-05-05 20:26 | 40.01642 | -80.70270 | 35212 ft | 369 kts | 272° |
| 2026-05-05 20:26 | 40.01657 | -80.73625 | 34534 ft | 371 kts | 272° |
| 2026-05-05 20:26 | 40.01677 | -80.76990 | 33847 ft | 372 kts | 271° |
| 2026-05-05 20:26 | 40.01653 | -80.80383 | 33043 ft | 375 kts | 266° |
| 2026-05-05 20:27 | 40.01143 | -80.83721 | 32470 ft | 375 kts | 255° |
| 2026-05-05 20:27 | 40.00246 | -80.86904 | 31952 ft | 373 kts | 252° |
| 2026-05-05 20:27 | 39.99287 | -80.90028 | 31455 ft | 370 kts | 251° |
| 2026-05-05 20:27 | 39.98325 | -80.93115 | 30978 ft | 366 kts | 251° |
| 2026-05-05 20:28 | 39.97369 | -80.96176 | 30509 ft | 363 kts | 251° |
| 2026-05-05 20:28 | 39.96442 | -80.99178 | 30057 ft | 359 kts | 251° |
| 2026-05-05 20:28 | 39.95521 | -81.02186 | 29522 ft | 357 kts | 250° |
| 2026-05-05 20:28 | 39.94598 | -81.05206 | 29027 ft | 364 kts | 250° |
| 2026-05-05 20:29 | 39.93647 | -81.08339 | 28528 ft | 377 kts | 250° |
| 2026-05-05 20:29 | 39.92684 | -81.11514 | 27990 ft | 374 kts | 250° |
| 2026-05-05 20:29 | 39.91734 | -81.14638 | 27493 ft | 369 kts | 249° |
| 2026-05-05 20:29 | 39.90792 | -81.17730 | 26985 ft | 365 kts | 249° |
| 2026-05-05 20:30 | 39.89864 | -81.20776 | 26496 ft | 361 kts | 249° |
| 2026-05-05 20:30 | 39.88939 | -81.23805 | 26008 ft | 358 kts | 249° |
| 2026-05-05 20:30 | 39.88019 | -81.26808 | 25525 ft | 356 kts | 248° |
| 2026-05-05 20:30 | 39.87110 | -81.29785 | 25065 ft | 353 kts | 249° |
| 2026-05-05 20:31 | 39.86204 | -81.32743 | 24595 ft | 351 kts | 249° |
| 2026-05-05 20:31 | 39.85304 | -81.35685 | 24122 ft | 348 kts | 248° |
| 2026-05-05 20:31 | 39.84407 | -81.38611 | 23645 ft | 348 kts | 248° |
| 2026-05-05 20:31 | 39.83512 | -81.41520 | 23107 ft | 347 kts | 248° |
| 2026-05-05 20:32 | 39.82619 | -81.44425 | 22598 ft | 344 kts | 248° |
| 2026-05-05 20:32 | 39.81733 | -81.47306 | 22098 ft | 341 kts | 248° |
| 2026-05-05 20:32 | 39.80860 | -81.50153 | 21664 ft | 338 kts | 248° |
| 2026-05-05 20:32 | 39.80021 | -81.52987 | 21254 ft | 335 kts | 248° |
| 2026-05-05 20:33 | 39.79187 | -81.55843 | 20862 ft | 341 kts | 248° |
| 2026-05-05 20:33 | 39.78342 | -81.58748 | 20460 ft | 345 kts | 248° |
| 2026-05-05 20:33 | 39.77497 | -81.61650 | 20047 ft | 343 kts | 248° |
| 2026-05-05 20:33 | 39.76654 | -81.64537 | 19620 ft | 339 kts | 248° |
| 2026-05-05 20:34 | 39.75822 | -81.67380 | 19234 ft | 336 kts | 248° |
| 2026-05-05 20:34 | 39.74995 | -81.70198 | 18831 ft | 333 kts | 248° |
| 2026-05-05 20:34 | 39.74169 | -81.73008 | 18432 ft | 331 kts | 247° |
| 2026-05-05 20:34 | 39.73348 | -81.75796 | 17994 ft | 329 kts | 247° |
| 2026-05-05 20:35 | 39.72539 | -81.78542 | 17670 ft | 324 kts | 247° |
| 2026-05-05 20:35 | 39.71734 | -81.81267 | 17281 ft | 322 kts | 247° |
| 2026-05-05 20:35 | 39.70931 | -81.83984 | 16886 ft | 321 kts | 247° |
| 2026-05-05 20:35 | 39.70134 | -81.86679 | 16499 ft | 320 kts | 247° |
| 2026-05-05 20:36 | 39.69339 | -81.89370 | 16125 ft | 319 kts | 247° |
| 2026-05-05 20:36 | 39.68544 | -81.92052 | 15738 ft | 318 kts | 247° |
| 2026-05-05 20:36 | 39.67748 | -81.94733 | 15349 ft | 318 kts | 247° |
| 2026-05-05 20:36 | 39.66959 | -81.97401 | 14980 ft | 316 kts | 247° |
| 2026-05-05 20:37 | 39.66168 | -82.00060 | 14595 ft | 315 kts | 247° |
| 2026-05-05 20:37 | 39.65380 | -82.02714 | 14217 ft | 314 kts | 247° |
| 2026-05-05 20:37 | 39.64591 | -82.05346 | 13859 ft | 312 kts | 247° |
| 2026-05-05 20:37 | 39.63805 | -82.07980 | 13435 ft | 315 kts | 248° |
| 2026-05-05 20:38 | 39.63326 | -82.10747 | 13002 ft | 318 kts | 265° |
| 2026-05-05 20:38 | 39.63574 | -82.13603 | 12662 ft | 322 kts | 278° |
| 2026-05-05 20:38 | 39.64419 | -82.16298 | 12472 ft | 328 kts | 296° |
| 2026-05-05 20:38 | 39.65690 | -82.18754 | 12154 ft | 326 kts | 298° |
| 2026-05-05 20:39 | 39.67021 | -82.21117 | 11880 ft | 322 kts | 301° |
| 2026-05-05 20:39 | 39.68385 | -82.23395 | 11582 ft | 319 kts | 301° |
| 2026-05-05 20:39 | 39.69733 | -82.25673 | 11231 ft | 315 kts | 301° |
| 2026-05-05 20:39 | 39.71035 | -82.27927 | 10861 ft | 310 kts | 300° |
| 2026-05-05 20:40 | 39.72296 | -82.30140 | 10522 ft | 299 kts | 300° |
| 2026-05-05 20:40 | 39.73509 | -82.32265 | 10191 ft | 289 kts | 300° |
| 2026-05-05 20:40 | 39.74869 | -82.34176 | 9859 ft | 288 kts | 311° |
| 2026-05-05 20:40 | 39.76393 | -82.35828 | 9512 ft | 284 kts | 313° |
| 2026-05-05 20:41 | 39.77937 | -82.37434 | 9170 ft | 285 kts | 314° |
| 2026-05-05 20:41 | 39.79485 | -82.39053 | 8840 ft | 285 kts | 313° |
| 2026-05-05 20:41 | 39.81022 | -82.40674 | 8507 ft | 284 kts | 314° |
| 2026-05-05 20:41 | 39.82549 | -82.42297 | 8180 ft | 284 kts | 314° |
| 2026-05-05 20:42 | 39.84075 | -82.43935 | 7852 ft | 283 kts | 313° |
| 2026-05-05 20:42 | 39.85587 | -82.45562 | 7512 ft | 281 kts | 313° |
| 2026-05-05 20:42 | 39.87087 | -82.47180 | 7197 ft | 280 kts | 313° |
| 2026-05-05 20:42 | 39.88578 | -82.48794 | 6888 ft | 279 kts | 314° |
| 2026-05-05 20:43 | 39.90069 | -82.50410 | 6564 ft | 279 kts | 313° |
| 2026-05-05 20:43 | 39.91558 | -82.52023 | 6248 ft | 278 kts | 313° |
| 2026-05-05 20:43 | 39.93042 | -82.53634 | 5914 ft | 277 kts | 313° |
| 2026-05-05 20:43 | 39.94508 | -82.55229 | 5572 ft | 271 kts | 313° |
| 2026-05-05 20:44 | 39.95935 | -82.56777 | 5255 ft | 261 kts | 313° |
| 2026-05-05 20:44 | 39.97128 | -82.58380 | 4979 ft | 237 kts | 292° |
| 2026-05-05 20:44 | 39.97602 | -82.60332 | 4736 ft | 219 kts | 274° |
| 2026-05-05 20:44 | 39.97768 | -82.62279 | 4477 ft | 219 kts | 269° |
| 2026-05-05 20:45 | 39.97980 | -82.66159 | 3948 ft | 206 kts | 269° |
| 2026-05-05 20:45 | 39.98092 | -82.67989 | 3681 ft | 198 kts | 269° |
| 2026-05-05 20:45 | 39.98191 | -82.69739 | 3448 ft | 190 kts | 268° |
| 2026-05-05 20:46 | 39.98284 | -82.71426 | 3192 ft | 182 kts | 268° |
| 2026-05-05 20:46 | 39.98372 | -82.73035 | 2957 ft | 175 kts | 268° |
| 2026-05-05 20:46 | 39.98456 | -82.74560 | 2732 ft | 162 kts | 268° |
| 2026-05-05 20:46 | 39.98533 | -82.75943 | 2537 ft | 145 kts | 266° |
| 2026-05-05 20:47 | 39.98602 | -82.77202 | 2367 ft | 134 kts | 266° |
| 2026-05-05 20:47 | 39.98665 | -82.78390 | 2182 ft | 131 kts | 265° |
| 2026-05-05 20:47 | 39.98731 | -82.79607 | 2024 ft | 138 kts | 266° |
| 2026-05-05 20:47 | 39.98794 | -82.80864 | 1857 ft | 138 kts | 267° |
| 2026-05-05 20:48 | 39.98874 | -82.82107 | 1652 ft | 139 kts | 268° |
| 2026-05-05 20:48 | 39.98935 | -82.83393 | 1453 ft | 144 kts | 267° |
| 2026-05-05 20:48 | 39.99002 | -82.84665 | 1297 ft | 138 kts | 269° |
| 2026-05-05 20:48 | 39.99091 | -82.85915 | 1085 ft | 143 kts | 266° |
| 2026-05-05 20:49 | 39.99148 | -82.87211 | 935 ft | 140 kts | 267° |
| 2026-05-05 20:49 | 39.99222 | -82.88428 | 826 ft | 124 kts | 268° |
| 2026-05-05 20:49 | 39.99272 | -82.89351 | 823 ft | 81 kts | 276° |
| 2026-05-05 20:49 | 39.99313 | -82.89885 | 820 ft | 40 kts | 283° |
| 2026-05-05 20:50 | 39.99396 | -82.90150 | 823 ft | 23 kts | 303° |
| 2026-05-05 20:50 | 39.99420 | -82.90190 | 823 ft | 5 kts | 310° |
| 2026-05-05 20:50 | 39.99468 | -82.90219 | 822 ft | 7 kts | 8° |
| 2026-05-05 20:50 | 39.99497 | -82.90150 | 821 ft | 12 kts | 92° |
| 2026-05-05 20:51 | 39.99492 | -82.90019 | 824 ft | 17 kts | 91° |
| 2026-05-05 20:51 | 39.99480 | -82.89867 | 824 ft | 17 kts | 102° |
| 2026-05-05 20:51 | 39.99474 | -82.89718 | 824 ft | 16 kts | 95° |
| 2026-05-05 20:51 | 39.99466 | -82.89576 | 824 ft | 15 kts | 94° |
| 2026-05-05 20:52 | 39.99459 | -82.89439 | 824 ft | 15 kts | 94° |
| 2026-05-05 20:52 | 39.99452 | -82.89307 | 824 ft | 14 kts | 95° |
| 2026-05-05 20:52 | 39.99445 | -82.89181 | 824 ft | 14 kts | 94° |
| 2026-05-05 20:52 | 39.99438 | -82.89056 | 824 ft | 15 kts | 95° |
| 2026-05-05 20:53 | 39.99432 | -82.88904 | 824 ft | 18 kts | 91° |
| 2026-05-05 20:53 | 39.99424 | -82.88738 | 824 ft | 18 kts | 94° |
| 2026-05-05 20:53 | 39.99412 | -82.88578 | 824 ft | 17 kts | 96° |
| 2026-05-05 20:53 | 39.99402 | -82.88425 | 824 ft | 17 kts | 94° |
| 2026-05-05 20:54 | 39.99454 | -82.88328 | 824 ft | 15 kts | 11° |
| 2026-05-05 20:54 | 39.99549 | -82.88318 | 822 ft | 12 kts | 351° |
| 2026-05-05 20:54 | 39.99575 | -82.88410 | 824 ft | 12 kts | 282° |
| 2026-05-05 20:54 | 39.99595 | -82.88496 | 824 ft | 7 kts | 307° |
| 2026-05-05 20:55 | 39.99634 | -82.88506 | 821 ft | 4 kts | 2° |
| 2026-05-05 20:55 | 39.99645 | -82.88505 | 824 ft | 0 kts | 4° |
| 2026-05-05 21:14 | 39.99637 | -82.88506 | 824 ft | 4 kts | 4° |
| 2026-05-05 21:14 | 39.99610 | -82.88509 | 824 ft | 4 kts | 4° |